createdAt,value
2023-04-22T00:00:29.542Z,977.59
2023-04-22T00:01:29.505Z,977.56
2023-04-22T00:02:29.618Z,977.54
2023-04-22T00:03:29.720Z,977.57
2023-04-22T00:04:29.749Z,977.55
2023-04-22T00:05:29.530Z,977.52
2023-04-22T00:06:29.458Z,977.49
2023-04-22T00:07:29.428Z,977.49
2023-04-22T00:08:29.427Z,977.54
2023-04-22T00:09:29.434Z,977.52
2023-04-22T00:10:29.406Z,977.51
2023-04-22T00:11:29.400Z,977.53
2023-04-22T00:12:29.406Z,977.52
2023-04-22T00:13:29.381Z,977.47
2023-04-22T00:14:29.368Z,977.52
2023-04-22T00:15:29.382Z,977.47
2023-04-22T00:16:29.402Z,977.54
2023-04-22T00:17:29.446Z,977.50
2023-04-22T00:18:29.325Z,977.46
2023-04-22T00:19:29.321Z,977.52
2023-04-22T00:20:29.309Z,977.49
2023-04-22T00:21:29.281Z,977.49
2023-04-22T00:22:29.317Z,977.50
2023-04-22T00:23:29.264Z,977.51
2023-04-22T00:24:29.287Z,977.54
2023-04-22T00:25:29.257Z,977.48
2023-04-22T00:26:29.233Z,977.49
2023-04-22T00:27:29.243Z,977.52
2023-04-22T00:28:29.224Z,977.52
2023-04-22T00:29:29.209Z,977.51
2023-04-22T00:30:29.201Z,977.46
2023-04-22T00:31:29.238Z,977.47
2023-04-22T00:32:29.203Z,977.50
2023-04-22T00:33:29.166Z,977.47
2023-04-22T00:34:29.168Z,977.52
2023-04-22T00:35:29.149Z,977.50
2023-04-22T00:36:29.126Z,977.51
2023-04-22T00:37:29.113Z,977.53
2023-04-22T00:38:29.139Z,977.51
2023-04-22T00:39:29.091Z,977.53
2023-04-22T00:40:29.112Z,977.50
2023-04-22T00:41:29.094Z,977.50
2023-04-22T00:42:29.069Z,977.54
2023-04-22T00:43:29.054Z,977.46
2023-04-22T00:44:29.054Z,977.55
2023-04-22T00:45:29.072Z,977.48
2023-04-22T00:46:29.077Z,977.44
2023-04-22T00:47:29.039Z,977.48
2023-04-22T00:48:29.146Z,977.48
2023-04-22T00:49:28.985Z,977.50
2023-04-22T00:50:28.977Z,977.47
2023-04-22T00:51:28.993Z,977.39
2023-04-22T00:52:28.961Z,977.45
2023-04-22T00:53:28.950Z,977.46
2023-04-22T00:54:28.953Z,977.47
2023-04-22T00:55:28.930Z,977.48
2023-04-22T00:56:28.927Z,977.51
2023-04-22T00:57:28.907Z,977.54
2023-04-22T00:58:28.904Z,977.57
2023-04-22T00:59:28.882Z,977.55
2023-04-22T01:00:28.945Z,977.52
2023-04-22T01:01:28.888Z,977.54
2023-04-22T01:02:29.018Z,977.52
2023-04-22T01:03:29.046Z,977.57
2023-04-22T01:04:28.903Z,977.50
2023-04-22T01:05:28.828Z,977.52
2023-04-22T01:06:28.811Z,977.48
2023-04-22T01:07:28.798Z,977.51
2023-04-22T01:08:28.807Z,977.48
2023-04-22T01:09:28.810Z,977.45
2023-04-22T01:10:28.770Z,977.50
2023-04-22T01:11:28.751Z,977.49
2023-04-22T01:12:28.770Z,977.45
2023-04-22T01:13:28.747Z,977.49
2023-04-22T01:14:28.732Z,977.44
2023-04-22T01:15:28.738Z,977.44
2023-04-22T01:16:28.742Z,977.45
2023-04-22T01:17:28.706Z,977.42
2023-04-22T01:18:28.685Z,977.39
2023-04-22T01:19:28.692Z,977.49
2023-04-22T01:20:28.678Z,977.49
2023-04-22T01:21:28.694Z,977.42
2023-04-22T01:22:28.643Z,977.41
2023-04-22T01:23:28.642Z,977.39
2023-04-22T01:24:28.639Z,977.44
2023-04-22T01:25:28.636Z,977.44
2023-04-22T01:26:28.619Z,977.46
2023-04-22T01:27:28.625Z,977.38
2023-04-22T01:28:28.604Z,977.37
2023-04-22T01:29:28.596Z,977.43
2023-04-22T01:30:28.588Z,977.36
2023-04-22T01:31:28.620Z,977.49
2023-04-22T01:32:28.750Z,977.43
2023-04-22T01:33:28.543Z,977.43
2023-04-22T01:34:28.541Z,977.40
2023-04-22T01:35:28.561Z,977.44
2023-04-22T01:36:28.511Z,977.44
2023-04-22T01:37:28.486Z,977.44
2023-04-22T01:38:28.490Z,977.44
2023-04-22T01:39:28.491Z,977.41
2023-04-22T01:40:28.483Z,977.37
2023-04-22T01:41:28.461Z,977.40
2023-04-22T01:42:28.448Z,977.38
2023-04-22T01:43:28.438Z,977.40
2023-04-22T01:44:28.425Z,977.41
2023-04-22T01:45:28.407Z,977.40
2023-04-22T01:46:28.525Z,977.44
2023-04-22T01:47:28.395Z,977.44
2023-04-22T01:48:28.383Z,977.47
2023-04-22T01:49:28.393Z,977.44
2023-04-22T01:50:28.360Z,977.42
2023-04-22T01:51:28.334Z,977.51
2023-04-22T01:52:28.334Z,977.50
2023-04-22T01:53:28.319Z,977.45
2023-04-22T01:54:28.321Z,977.46
2023-04-22T01:55:28.325Z,977.49
2023-04-22T01:56:28.308Z,977.49
2023-04-22T01:57:28.275Z,977.48
2023-04-22T01:58:28.268Z,977.55
2023-04-22T01:59:28.276Z,977.48
2023-04-22T02:00:28.258Z,977.47
2023-04-22T02:01:28.288Z,977.43
2023-04-22T02:02:28.320Z,977.47
2023-04-22T02:03:28.284Z,977.52
2023-04-22T02:04:28.238Z,977.49
2023-04-22T02:05:28.205Z,977.52
2023-04-22T02:06:28.200Z,977.50
2023-04-22T02:07:28.176Z,977.51
2023-04-22T02:08:28.179Z,977.54
2023-04-22T02:09:28.149Z,977.49
2023-04-22T02:10:28.164Z,977.53
2023-04-22T02:11:28.141Z,977.54
2023-04-22T02:12:28.125Z,977.59
2023-04-22T02:13:28.126Z,977.62
2023-04-22T02:14:28.108Z,977.63
2023-04-22T02:15:28.095Z,977.55
2023-04-22T02:16:28.122Z,977.62
2023-04-22T02:17:28.067Z,977.67
2023-04-22T02:18:28.067Z,977.70
2023-04-22T02:19:28.077Z,977.75
2023-04-22T02:20:28.018Z,977.68
2023-04-22T02:21:28.018Z,977.71
2023-04-22T02:22:28.002Z,977.70
2023-04-22T02:23:27.999Z,977.72
2023-04-22T02:24:28.008Z,977.70
2023-04-22T02:25:27.970Z,977.76
2023-04-22T02:26:27.976Z,977.77
2023-04-22T02:27:27.960Z,977.72
2023-04-22T02:28:27.951Z,977.68
2023-04-22T02:29:27.953Z,977.70
2023-04-22T02:30:27.938Z,977.69
2023-04-22T02:31:27.933Z,977.70
2023-04-22T02:32:28.012Z,977.74
2023-04-22T02:33:27.896Z,977.81
2023-04-22T02:34:27.873Z,977.75
2023-04-22T02:35:27.879Z,977.71
2023-04-22T02:36:27.859Z,977.69
2023-04-22T02:37:27.844Z,977.71
2023-04-22T02:38:27.830Z,977.69
2023-04-22T02:39:27.822Z,977.66
2023-04-22T02:40:27.831Z,977.69
2023-04-22T02:41:27.805Z,977.75
2023-04-22T02:42:27.800Z,977.74
2023-04-22T02:43:27.805Z,977.72
2023-04-22T02:44:27.781Z,977.72
2023-04-22T02:45:27.752Z,977.76
2023-04-22T02:46:27.892Z,977.71
2023-04-22T02:47:27.798Z,977.74
2023-04-22T02:48:27.732Z,977.66
2023-04-22T02:49:27.732Z,977.76
2023-04-22T02:50:27.734Z,977.73
2023-04-22T02:51:27.701Z,977.70
2023-04-22T02:52:27.720Z,977.77
2023-04-22T02:53:27.688Z,977.78
2023-04-22T02:54:27.676Z,977.73
2023-04-22T02:55:27.661Z,977.72
2023-04-22T02:56:27.655Z,977.89
2023-04-22T02:57:27.640Z,977.86
2023-04-22T02:58:27.637Z,977.81
2023-04-22T02:59:27.618Z,977.85
2023-04-22T03:00:27.651Z,977.83
2023-04-22T03:01:27.682Z,977.83
2023-04-22T03:02:27.696Z,977.71
2023-04-22T03:03:27.894Z,977.70
2023-04-22T03:04:27.711Z,977.77
2023-04-22T03:05:27.561Z,977.82
2023-04-22T03:06:27.549Z,977.82
2023-04-22T03:07:27.543Z,977.81
2023-04-22T03:08:27.550Z,977.80
2023-04-22T03:09:27.515Z,977.75
2023-04-22T03:10:27.499Z,977.72
2023-04-22T03:11:27.494Z,977.67
2023-04-22T03:12:27.487Z,977.73
2023-04-22T03:13:27.478Z,977.74
2023-04-22T03:14:27.455Z,977.67
2023-04-22T03:15:27.440Z,977.70
2023-04-22T03:16:27.483Z,977.63
2023-04-22T03:17:27.452Z,977.73
2023-04-22T03:18:27.429Z,977.61
2023-04-22T03:19:27.394Z,977.63
2023-04-22T03:20:27.391Z,977.64
2023-04-22T03:21:27.382Z,977.63
2023-04-22T03:22:27.372Z,977.62
2023-04-22T03:23:27.350Z,977.64
2023-04-22T03:24:27.364Z,977.62
2023-04-22T03:25:27.328Z,977.59
2023-04-22T03:26:27.346Z,977.69
2023-04-22T03:27:27.343Z,977.68
2023-04-22T03:28:27.313Z,977.73
2023-04-22T03:29:27.313Z,977.76
2023-04-22T03:30:27.284Z,977.68
2023-04-22T03:31:27.342Z,977.76
2023-04-22T03:32:27.273Z,977.75
2023-04-22T03:33:27.244Z,977.80
2023-04-22T03:34:27.252Z,977.76
2023-04-22T03:35:27.260Z,977.72
2023-04-22T03:36:27.220Z,977.76
2023-04-22T03:37:27.215Z,977.76
2023-04-22T03:38:27.296Z,977.79
2023-04-22T03:39:27.199Z,977.83
2023-04-22T03:40:27.188Z,977.83
2023-04-22T03:41:27.156Z,977.87
2023-04-22T03:42:27.166Z,977.85
2023-04-22T03:43:27.167Z,977.89
2023-04-22T03:44:27.132Z,977.86
2023-04-22T03:45:27.158Z,977.83
2023-04-22T03:46:27.266Z,977.84
2023-04-22T03:47:27.190Z,977.82
2023-04-22T03:48:27.113Z,977.80
2023-04-22T03:49:27.078Z,977.76
2023-04-22T03:50:27.077Z,977.80
2023-04-22T03:51:27.092Z,977.79
2023-04-22T03:52:27.072Z,977.85
2023-04-22T03:53:27.068Z,977.88
2023-04-22T03:54:27.155Z,977.87
2023-04-22T03:55:27.045Z,977.93
2023-04-22T03:56:27.024Z,977.89
2023-04-22T03:57:27.122Z,977.83
2023-04-22T03:58:27.364Z,977.91
2023-04-22T03:59:27.013Z,977.83
2023-04-22T04:00:26.962Z,977.86
2023-04-22T04:01:27.059Z,977.83
2023-04-22T04:02:27.109Z,977.85
2023-04-22T04:03:30.276Z,977.86
2023-04-22T04:04:27.102Z,977.88
2023-04-22T04:05:27.127Z,977.86
2023-04-22T04:06:26.899Z,977.87
2023-04-22T04:07:26.931Z,977.93
2023-04-22T04:08:26.917Z,977.88
2023-04-22T04:09:26.880Z,977.88
2023-04-22T04:10:26.846Z,977.91
2023-04-22T04:11:26.854Z,977.87
2023-04-22T04:12:26.837Z,977.88
2023-04-22T04:13:26.824Z,977.84
2023-04-22T04:14:26.830Z,977.91
2023-04-22T04:15:26.813Z,977.80
2023-04-22T04:16:26.858Z,977.84
2023-04-22T04:17:26.838Z,977.82
2023-04-22T04:18:26.792Z,977.84
2023-04-22T04:19:26.763Z,977.83
2023-04-22T04:20:26.754Z,977.87
2023-04-22T04:21:26.773Z,977.80
2023-04-22T04:22:26.742Z,977.75
2023-04-22T04:23:26.723Z,977.74
2023-04-22T04:24:26.705Z,977.74
2023-04-22T04:25:26.726Z,977.75
2023-04-22T04:26:26.695Z,977.73
2023-04-22T04:27:26.700Z,977.71
2023-04-22T04:28:26.700Z,977.72
2023-04-22T04:29:26.651Z,977.77
2023-04-22T04:30:26.645Z,977.69
2023-04-22T04:31:26.730Z,977.69
2023-04-22T04:32:26.726Z,977.71
2023-04-22T04:33:26.628Z,977.73
2023-04-22T04:34:26.605Z,977.74
2023-04-22T04:35:26.597Z,977.79
2023-04-22T04:36:26.581Z,977.73
2023-04-22T04:37:26.593Z,977.74
2023-04-22T04:38:26.581Z,977.75
2023-04-22T04:39:26.561Z,977.79
2023-04-22T04:40:26.542Z,977.79
2023-04-22T04:41:26.536Z,977.76
2023-04-22T04:42:26.505Z,977.75
2023-04-22T04:43:26.537Z,977.76
2023-04-22T04:44:26.482Z,977.75
2023-04-22T04:45:26.530Z,977.78
2023-04-22T04:46:26.521Z,977.72
2023-04-22T04:47:26.502Z,977.75
2023-04-22T04:48:26.446Z,977.68
2023-04-22T04:49:26.446Z,977.69
2023-04-22T04:50:26.442Z,977.67
2023-04-22T04:51:26.423Z,977.71
2023-04-22T04:52:26.398Z,977.64
2023-04-22T04:53:26.404Z,977.68
2023-04-22T04:54:26.386Z,977.72
2023-04-22T04:55:26.394Z,977.67
2023-04-22T04:56:26.374Z,977.72
2023-04-22T04:57:26.365Z,977.71
2023-04-22T04:58:26.349Z,977.68
2023-04-22T04:59:26.346Z,977.73
2023-04-22T05:00:26.334Z,977.67
2023-04-22T05:01:26.351Z,977.70
2023-04-22T05:02:26.515Z,977.70
2023-04-22T05:03:26.458Z,977.68
2023-04-22T05:04:26.727Z,977.68
2023-04-22T05:05:26.300Z,977.64
2023-04-22T05:06:26.294Z,977.65
2023-04-22T05:07:26.260Z,977.72
2023-04-22T05:08:26.253Z,977.72
2023-04-22T05:09:26.459Z,977.69
2023-04-22T05:10:26.213Z,977.72
2023-04-22T05:11:26.228Z,977.73
2023-04-22T05:12:26.201Z,977.78
2023-04-22T05:13:26.191Z,977.77
2023-04-22T05:14:26.191Z,977.76
2023-04-22T05:15:26.168Z,977.78
2023-04-22T05:16:26.180Z,977.79
2023-04-22T05:17:26.186Z,977.78
2023-04-22T05:18:26.133Z,977.80
2023-04-22T05:19:26.122Z,977.73
2023-04-22T05:20:26.136Z,977.78
2023-04-22T05:21:26.124Z,977.72
2023-04-22T05:22:26.095Z,977.76
2023-04-22T05:23:26.090Z,977.74
2023-04-22T05:24:26.076Z,977.75
2023-04-22T05:25:26.069Z,977.75
2023-04-22T05:26:26.049Z,977.77
2023-04-22T05:27:26.037Z,977.82
2023-04-22T05:28:26.721Z,977.84
2023-04-22T05:29:26.744Z,977.81
2023-04-22T05:30:26.022Z,977.85
2023-04-22T05:31:26.041Z,977.85
2023-04-22T05:32:26.053Z,977.82
2023-04-22T05:33:25.990Z,977.78
2023-04-22T05:34:25.963Z,977.83
2023-04-22T05:35:25.991Z,977.80
2023-04-22T05:36:26.693Z,977.79
2023-04-22T05:37:25.950Z,977.76
2023-04-22T05:38:25.951Z,977.83
2023-04-22T05:39:25.918Z,977.83
2023-04-22T05:40:25.976Z,977.89
2023-04-22T05:41:25.892Z,977.87
2023-04-22T05:42:25.900Z,977.86
2023-04-22T05:43:25.888Z,977.89
2023-04-22T05:44:25.872Z,977.88
2023-04-22T05:45:25.838Z,977.89
2023-04-22T05:46:25.845Z,977.90
2023-04-22T05:47:25.892Z,977.95
2023-04-22T05:48:25.814Z,977.94
2023-04-22T05:49:25.805Z,977.93
2023-04-22T05:50:25.812Z,977.91
2023-04-22T05:51:25.799Z,977.98
2023-04-22T05:52:25.779Z,977.98
2023-04-22T05:53:25.771Z,977.96
2023-04-22T05:54:25.790Z,977.93
2023-04-22T05:55:25.762Z,977.95
2023-04-22T05:56:25.732Z,977.99
2023-04-22T05:57:25.735Z,977.90
2023-04-22T05:58:25.724Z,977.99
2023-04-22T05:59:25.717Z,977.92
2023-04-22T06:00:25.698Z,977.98
2023-04-22T06:01:25.674Z,978.00
2023-04-22T06:02:25.813Z,978.01
2023-04-22T06:03:25.863Z,977.95
2023-04-22T06:04:25.951Z,978.00
2023-04-22T06:05:25.717Z,978.00
2023-04-22T06:06:25.723Z,978.00
2023-04-22T06:07:25.635Z,977.94
2023-04-22T06:08:25.718Z,978.00
2023-04-22T06:09:25.613Z,977.92
2023-04-22T06:10:26.310Z,978.04
2023-04-22T06:11:25.617Z,977.96
2023-04-22T06:12:26.587Z,977.98
2023-04-22T06:13:25.555Z,977.94
2023-04-22T06:14:26.755Z,977.91
2023-04-22T06:15:25.535Z,978.01
2023-04-22T06:16:26.403Z,977.96
2023-04-22T06:17:25.559Z,977.99
2023-04-22T06:18:28.248Z,978.05
2023-04-22T06:19:25.498Z,977.92
2023-04-22T06:20:25.506Z,978.06
2023-04-22T06:21:25.488Z,978.00
2023-04-22T06:22:25.447Z,977.94
2023-04-22T06:23:25.435Z,977.88
2023-04-22T06:24:25.428Z,977.89
2023-04-22T06:25:25.433Z,977.86
2023-04-22T06:26:25.429Z,977.90
2023-04-22T06:27:25.392Z,977.90
2023-04-22T06:28:25.394Z,977.92
2023-04-22T06:29:25.375Z,977.91
2023-04-22T06:30:25.374Z,977.92
2023-04-22T06:31:25.403Z,977.92
2023-04-22T06:32:25.352Z,977.96
2023-04-22T06:33:25.336Z,978.00
2023-04-22T06:34:25.327Z,978.03
2023-04-22T06:35:25.342Z,978.01
2023-04-22T06:36:25.316Z,978.06
2023-04-22T06:37:25.286Z,978.08
2023-04-22T06:38:25.304Z,978.09
2023-04-22T06:39:25.278Z,978.10
2023-04-22T06:40:25.244Z,978.03
2023-04-22T06:41:25.266Z,978.02
2023-04-22T06:42:25.234Z,978.07
2023-04-22T06:43:25.231Z,978.08
2023-04-22T06:44:25.282Z,978.07
2023-04-22T06:45:25.212Z,978.07
2023-04-22T06:46:25.195Z,978.10
2023-04-22T06:47:25.226Z,978.10
2023-04-22T06:48:25.188Z,978.03
2023-04-22T06:49:25.181Z,978.11
2023-04-22T06:50:25.166Z,978.06
2023-04-22T06:51:25.146Z,978.03
2023-04-22T06:52:25.125Z,978.04
2023-04-22T06:53:25.121Z,978.09
2023-04-22T06:54:25.109Z,978.02
2023-04-22T06:55:25.119Z,978.10
2023-04-22T06:56:25.103Z,978.06
2023-04-22T06:57:25.077Z,978.11
2023-04-22T06:58:25.064Z,978.06
2023-04-22T06:59:25.084Z,978.03
2023-04-22T07:00:25.044Z,978.06
2023-04-22T07:01:25.072Z,978.08
2023-04-22T07:02:25.081Z,978.06
2023-04-22T07:03:25.171Z,978.04
2023-04-22T07:04:25.037Z,977.98
2023-04-22T07:05:24.998Z,977.99
2023-04-22T07:06:24.998Z,978.02
2023-04-22T07:07:24.981Z,978.04
2023-04-22T07:08:24.949Z,978.01
2023-04-22T07:09:24.954Z,978.07
2023-04-22T07:10:24.931Z,978.04
2023-04-22T07:11:24.929Z,978.07
2023-04-22T07:12:24.945Z,978.05
2023-04-22T07:13:24.927Z,978.02
2023-04-22T07:14:24.891Z,978.02
2023-04-22T07:15:24.880Z,978.02
2023-04-22T07:16:24.900Z,978.01
2023-04-22T07:17:24.889Z,978.01
2023-04-22T07:18:24.861Z,978.02
2023-04-22T07:19:24.845Z,978.00
2023-04-22T07:20:24.831Z,977.99
2023-04-22T07:21:24.809Z,977.97
2023-04-22T07:22:24.815Z,977.96
2023-04-22T07:23:24.799Z,977.94
2023-04-22T07:24:24.788Z,977.87
2023-04-22T07:25:24.789Z,977.92
2023-04-22T07:26:24.764Z,977.91
2023-04-22T07:27:24.770Z,977.89
2023-04-22T07:28:24.733Z,977.87
2023-04-22T07:29:24.721Z,977.84
2023-04-22T07:30:24.827Z,977.82
2023-04-22T07:31:24.728Z,977.79
2023-04-22T07:32:24.850Z,977.82
2023-04-22T07:33:24.690Z,977.80
2023-04-22T07:34:24.689Z,977.83
2023-04-22T07:35:24.667Z,977.83
2023-04-22T07:36:24.652Z,977.82
2023-04-22T07:37:24.658Z,977.77
2023-04-22T07:38:24.632Z,977.74
2023-04-22T07:39:24.648Z,977.78
2023-04-22T07:40:24.654Z,977.78
2023-04-22T07:41:24.605Z,977.77
2023-04-22T07:42:24.574Z,977.67
2023-04-22T07:43:24.569Z,977.72
2023-04-22T07:44:24.572Z,977.70
2023-04-22T07:45:24.570Z,977.75
2023-04-22T07:46:24.597Z,977.73
2023-04-22T07:47:24.556Z,977.71
2023-04-22T07:48:24.516Z,977.73
2023-04-22T07:49:24.527Z,977.79
2023-04-22T07:50:24.518Z,977.82
2023-04-22T07:51:24.523Z,977.82
2023-04-22T07:52:24.497Z,977.80
2023-04-22T07:53:24.489Z,977.82
2023-04-22T07:54:24.462Z,977.84
2023-04-22T07:55:24.468Z,977.82
2023-04-22T07:56:24.448Z,977.77
2023-04-22T07:57:24.432Z,977.79
2023-04-22T07:58:24.436Z,977.82
2023-04-22T07:59:24.418Z,977.81
2023-04-22T08:00:24.415Z,977.80
2023-04-22T08:01:24.451Z,977.79
2023-04-22T08:02:24.615Z,977.79
2023-04-22T08:03:24.626Z,977.89
2023-04-22T08:04:24.649Z,977.87
2023-04-22T08:05:24.350Z,977.96
2023-04-22T08:06:24.336Z,977.93
2023-04-22T08:08:24.344Z,978.01
2023-04-22T08:09:24.302Z,978.02
2023-04-22T08:10:24.312Z,977.96
2023-04-22T08:11:24.290Z,978.04
2023-04-22T08:12:24.307Z,978.02
2023-04-22T08:13:24.247Z,977.99
2023-04-22T08:14:24.254Z,977.99
2023-04-22T08:15:24.242Z,978.00
2023-04-22T08:16:24.314Z,977.96
2023-04-22T08:17:24.240Z,978.01
2023-04-22T08:18:24.238Z,978.00
2023-04-22T08:19:24.204Z,977.99
2023-04-22T08:20:24.229Z,977.97
2023-04-22T08:21:24.194Z,977.96
2023-04-22T08:22:24.198Z,977.98
2023-04-22T08:23:24.157Z,977.91
2023-04-22T08:24:24.152Z,977.93
2023-04-22T08:25:24.121Z,977.91
2023-04-22T08:26:24.121Z,977.91
2023-04-22T08:27:24.112Z,977.89
2023-04-22T08:28:24.115Z,977.94
2023-04-22T08:29:24.080Z,977.86
2023-04-22T08:30:24.075Z,977.94
2023-04-22T08:31:24.096Z,977.93
2023-04-22T08:32:24.086Z,977.87
2023-04-22T08:33:26.524Z,977.97
2023-04-22T08:34:24.045Z,977.89
2023-04-22T08:35:24.024Z,977.88
2023-04-22T08:36:24.011Z,977.89
2023-04-22T08:37:24.000Z,977.95
2023-04-22T08:38:23.999Z,977.92
2023-04-22T08:39:23.995Z,977.86
2023-04-22T08:40:23.996Z,977.92
2023-04-22T08:41:23.966Z,977.93
2023-04-22T08:42:23.980Z,977.91
2023-04-22T08:43:23.946Z,977.86
2023-04-22T08:44:23.936Z,977.92
2023-04-22T08:45:23.919Z,977.89
2023-04-22T08:46:23.964Z,977.80
2023-04-22T08:47:23.948Z,977.86
2023-04-22T08:48:23.886Z,977.85
2023-04-22T08:49:23.870Z,977.87
2023-04-22T08:50:23.879Z,977.80
2023-04-22T08:51:23.857Z,977.82
2023-04-22T08:52:23.854Z,977.83
2023-04-22T08:53:24.888Z,977.83
2023-04-22T08:54:23.830Z,977.89
2023-04-22T08:55:23.823Z,977.89
2023-04-22T08:56:23.808Z,977.84
2023-04-22T08:57:23.807Z,977.88
2023-04-22T08:58:23.810Z,977.79
2023-04-22T08:59:23.798Z,977.83
2023-04-22T09:00:23.775Z,977.81
2023-04-22T09:01:23.756Z,977.82
2023-04-22T09:02:23.788Z,977.75
2023-04-22T09:03:23.815Z,977.79
2023-04-22T09:04:23.825Z,977.75
2023-04-22T09:05:25.174Z,977.73
2023-04-22T09:06:23.737Z,977.68
2023-04-22T09:07:23.684Z,977.66
2023-04-22T09:08:23.668Z,977.69
2023-04-22T09:09:23.661Z,977.66
2023-04-22T09:10:23.656Z,977.62
2023-04-22T09:11:23.665Z,977.67
2023-04-22T09:12:23.647Z,977.58
2023-04-22T09:13:23.623Z,977.61
2023-04-22T09:14:23.608Z,977.55
2023-04-22T09:15:23.587Z,977.61
2023-04-22T09:16:23.660Z,977.53
2023-04-22T09:17:23.609Z,977.53
2023-04-22T09:18:23.556Z,977.48
2023-04-22T09:19:23.563Z,977.51
2023-04-22T09:20:23.546Z,977.47
2023-04-22T09:21:23.547Z,977.46
2023-04-22T09:22:23.548Z,977.51
2023-04-22T09:23:23.510Z,977.52
2023-04-22T09:24:23.504Z,977.49
2023-04-22T09:25:23.497Z,977.50
2023-04-22T09:26:23.499Z,977.51
2023-04-22T09:27:23.465Z,977.49
2023-04-22T09:28:23.481Z,977.50
2023-04-22T09:29:23.452Z,977.48
2023-04-22T09:30:23.436Z,977.55
2023-04-22T09:31:23.467Z,977.42
2023-04-22T09:32:23.470Z,977.54
2023-04-22T09:33:23.414Z,977.50
2023-04-22T09:34:23.398Z,977.55
2023-04-22T09:35:23.374Z,977.55
2023-04-22T09:36:23.367Z,977.54
2023-04-22T09:37:23.362Z,977.51
2023-04-22T09:38:23.352Z,977.49
2023-04-22T09:39:23.346Z,977.52
2023-04-22T09:40:23.340Z,977.55
2023-04-22T09:41:23.317Z,977.52
2023-04-22T09:42:23.310Z,977.48
2023-04-22T09:43:23.300Z,977.55
2023-04-22T09:44:23.320Z,977.43
2023-04-22T09:45:23.270Z,977.50
2023-04-22T09:46:23.463Z,977.50
2023-04-22T09:47:23.275Z,977.57
2023-04-22T09:48:23.250Z,977.51
2023-04-22T09:49:23.263Z,977.51
2023-04-22T09:50:23.236Z,977.43
2023-04-22T09:51:23.214Z,977.44
2023-04-22T09:52:23.203Z,977.44
2023-04-22T09:53:23.189Z,977.40
2023-04-22T09:54:23.171Z,977.38
2023-04-22T09:55:23.189Z,977.41
2023-04-22T09:56:23.160Z,977.44
2023-04-22T09:57:23.147Z,977.37
2023-04-22T09:58:23.147Z,977.41
2023-04-22T09:59:23.134Z,977.32
2023-04-22T10:00:23.115Z,977.30
2023-04-22T10:01:23.133Z,977.28
2023-04-22T10:02:23.134Z,977.30
2023-04-22T10:03:23.146Z,977.24
2023-04-22T10:04:23.117Z,977.23
2023-04-22T10:05:23.055Z,977.27
2023-04-22T10:06:23.070Z,977.21
2023-04-22T10:07:23.044Z,977.13
2023-04-22T10:08:23.214Z,977.20
2023-04-22T10:09:23.023Z,977.15
2023-04-22T10:10:23.017Z,977.15
2023-04-22T10:11:23.016Z,977.18
2023-04-22T10:12:32.791Z,977.11
2023-04-22T10:13:23.972Z,977.17
2023-04-22T10:14:23.214Z,977.12
2023-04-22T10:15:24.954Z,977.10
2023-04-22T10:16:22.980Z,977.17
2023-04-22T10:17:22.945Z,977.13
2023-04-22T10:18:22.934Z,977.06
2023-04-22T10:19:22.915Z,977.10
2023-04-22T10:20:22.905Z,977.11
2023-04-22T10:21:23.830Z,977.05
2023-04-22T10:22:22.890Z,977.09
2023-04-22T10:23:22.858Z,977.12
2023-04-22T10:24:22.868Z,977.13
2023-04-22T10:25:22.848Z,977.14
2023-04-22T10:26:22.835Z,977.11
2023-04-22T10:27:22.832Z,977.16
2023-04-22T10:28:22.823Z,977.10
2023-04-22T10:29:22.818Z,977.10
2023-04-22T10:30:22.795Z,977.11
2023-04-22T10:31:22.821Z,977.08
2023-04-22T10:32:22.792Z,977.10
2023-04-22T10:33:22.770Z,977.09
2023-04-22T10:34:22.762Z,977.05
2023-04-22T10:35:22.752Z,977.02
2023-04-22T10:36:22.720Z,976.97
2023-04-22T10:37:22.739Z,977.04
2023-04-22T10:38:22.714Z,977.05
2023-04-22T10:39:22.695Z,976.98
2023-04-22T10:40:22.763Z,976.98
2023-04-22T10:41:22.690Z,976.88
2023-04-22T10:42:22.674Z,976.91
2023-04-22T10:43:22.654Z,976.93
2023-04-22T10:44:22.657Z,976.85
2023-04-22T10:45:22.626Z,976.87
2023-04-22T10:46:22.726Z,976.84
2023-04-22T10:47:22.596Z,976.81
2023-04-22T10:48:22.607Z,976.79
2023-04-22T10:49:22.631Z,976.72
2023-04-22T10:50:22.580Z,976.79
2023-04-22T10:51:22.548Z,976.73
2023-04-22T10:52:22.555Z,976.77
2023-04-22T10:53:22.553Z,976.74
2023-04-22T10:54:22.788Z,976.62
2023-04-22T10:55:22.506Z,976.63
2023-04-22T10:56:22.525Z,976.62
2023-04-22T10:57:22.523Z,976.69
2023-04-22T10:58:22.503Z,976.61
2023-04-22T10:59:22.482Z,976.66
2023-04-22T11:00:22.486Z,976.63
2023-04-22T11:01:22.457Z,976.60
2023-04-22T11:02:22.508Z,976.56
2023-04-22T11:03:22.720Z,976.62
2023-04-22T11:04:22.654Z,976.62
2023-04-22T11:05:24.632Z,976.62
2023-04-22T11:06:22.495Z,976.59
2023-04-22T11:07:22.421Z,976.58
2023-04-22T11:08:22.386Z,976.61
2023-04-22T11:09:22.381Z,976.57
2023-04-22T11:10:22.364Z,976.58
2023-04-22T11:11:22.369Z,976.60
2023-04-22T11:12:22.334Z,976.56
2023-04-22T11:13:22.342Z,976.58
2023-04-22T11:14:22.328Z,976.58
2023-04-22T11:15:22.323Z,976.53
2023-04-22T11:16:22.774Z,976.63
2023-04-22T11:17:22.319Z,976.61
2023-04-22T11:18:22.302Z,976.56
2023-04-22T11:19:22.278Z,976.58
2023-04-22T11:20:22.273Z,976.60
2023-04-22T11:21:22.274Z,976.63
2023-04-22T11:22:22.231Z,976.65
2023-04-22T11:23:22.241Z,976.53
2023-04-22T11:24:22.252Z,976.55
2023-04-22T11:25:22.196Z,976.56
2023-04-22T11:26:22.232Z,976.57
2023-04-22T11:27:22.179Z,976.55
2023-04-22T11:28:22.196Z,976.57
2023-04-22T11:29:22.168Z,976.52
2023-04-22T11:30:22.166Z,976.48
2023-04-22T11:31:22.173Z,976.46
2023-04-22T11:32:22.183Z,976.50
2023-04-22T11:33:22.140Z,976.44
2023-04-22T11:34:22.130Z,976.41
2023-04-22T11:35:22.119Z,976.43
2023-04-22T11:36:22.096Z,976.39
2023-04-22T11:37:22.083Z,976.53
2023-04-22T11:38:22.087Z,976.45
2023-04-22T11:39:22.080Z,976.44
2023-04-22T11:40:30.906Z,976.32
2023-04-22T11:41:23.055Z,976.54
2023-04-22T11:42:22.030Z,976.41
2023-04-22T11:43:22.025Z,976.37
2023-04-22T11:44:22.015Z,976.35
2023-04-22T11:45:22.008Z,976.41
2023-04-22T11:46:22.560Z,976.33
2023-04-22T11:47:21.993Z,976.41
2023-04-22T11:48:21.964Z,976.31
2023-04-22T11:49:21.981Z,976.34
2023-04-22T11:50:21.958Z,976.31
2023-04-22T11:51:21.930Z,976.33
2023-04-22T11:52:21.920Z,976.35
2023-04-22T11:53:21.929Z,976.35
2023-04-22T11:54:21.898Z,976.34
2023-04-22T11:55:21.882Z,976.34
2023-04-22T11:56:21.870Z,976.36
2023-04-22T11:57:21.879Z,976.33
2023-04-22T11:58:21.886Z,976.37
2023-04-22T11:59:21.851Z,976.34
2023-04-22T12:00:21.848Z,976.37
2023-04-22T12:01:21.843Z,976.36
2023-04-22T12:02:21.892Z,976.35
2023-04-22T12:03:21.906Z,976.43
2023-04-22T12:04:21.914Z,976.40
2023-04-22T12:05:21.808Z,976.40
2023-04-22T12:06:21.775Z,976.30
2023-04-22T12:07:21.774Z,976.33
2023-04-22T12:08:21.739Z,976.27
2023-04-22T12:09:21.744Z,976.25
2023-04-22T12:10:21.752Z,976.24
2023-04-22T12:11:21.722Z,976.25
2023-04-22T12:12:21.716Z,976.20
2023-04-22T12:13:21.692Z,976.27
2023-04-22T12:14:21.694Z,976.23
2023-04-22T12:15:21.702Z,976.39
2023-04-22T12:16:21.709Z,976.30
2023-04-22T12:17:21.698Z,976.32
2023-04-22T12:18:21.633Z,976.24
2023-04-22T12:19:21.655Z,976.32
2023-04-22T12:20:24.115Z,976.33
2023-04-22T12:21:21.640Z,976.29
2023-04-22T12:22:21.610Z,976.27
2023-04-22T12:23:21.591Z,976.22
2023-04-22T12:24:21.582Z,976.28
2023-04-22T12:25:21.580Z,976.17
2023-04-22T12:26:23.652Z,976.16
2023-04-22T12:27:21.581Z,976.20
2023-04-22T12:28:21.545Z,976.29
2023-04-22T12:29:21.532Z,976.32